< < Back
Terminal Aerodrome Forecast


Current Version              Previous Versions:   1  2  3  4  5  6  7  8  9  

Terminal Aerodrome Forecast

786
FTUS42 KJAX 192300
TAFGNV
TAF
KGNV 192339Z 2000/2024 33010KT 2SM -DZ OVC006
     FM201400 36012KT P6SM BKN015
     FM201900 01012G20KT P6SM SCT025=



Latest METAR

013
SAUS70 KWBC 201300 RRL
MTRGNV
METAR KGNV 201253Z 35008KT 10SM BKN011 14/12 A3009 RMK AO2 SLP189
T01390117


USA.gov is the U.S. government's official web portal to all federal, state and local government web resources and services.